sensor_id;sensor_type;location;lat;lon;timestamp;P1;durP1;ratioP1;P2;durP2;ratioP2
20729;SDS011;10526;50.850;12.928;2023-05-10T00:03:25;11.13;;;4.43;;
20729;SDS011;10526;50.850;12.928;2023-05-10T00:07:48;9.30;;;3.75;;
20729;SDS011;10526;50.850;12.928;2023-05-10T00:12:10;8.55;;;3.67;;
20729;SDS011;10526;50.850;12.928;2023-05-10T00:16:32;8.82;;;3.33;;
20729;SDS011;10526;50.850;12.928;2023-05-10T00:20:54;8.38;;;3.50;;
20729;SDS011;10526;50.850;12.928;2023-05-10T00:25:16;9.95;;;3.90;;
20729;SDS011;10526;50.850;12.928;2023-05-10T00:29:38;11.13;;;3.65;;
20729;SDS011;10526;50.850;12.928;2023-05-10T00:34:01;9.02;;;3.65;;
20729;SDS011;10526;50.850;12.928;2023-05-10T00:38:23;9.32;;;3.45;;
20729;SDS011;10526;50.850;12.928;2023-05-10T00:42:45;8.63;;;3.40;;
20729;SDS011;10526;50.850;12.928;2023-05-10T00:47:08;12.65;;;3.60;;
20729;SDS011;10526;50.850;12.928;2023-05-10T00:51:30;9.35;;;3.78;;
20729;SDS011;10526;50.850;12.928;2023-05-10T00:55:53;6.53;;;3.22;;
20729;SDS011;10526;50.850;12.928;2023-05-10T01:00:14;10.48;;;3.60;;
20729;SDS011;10526;50.850;12.928;2023-05-10T01:04:39;7.97;;;3.88;;
20729;SDS011;10526;50.850;12.928;2023-05-10T01:09:02;8.10;;;3.67;;
20729;SDS011;10526;50.850;12.928;2023-05-10T01:13:34;10.98;;;3.60;;
20729;SDS011;10526;50.850;12.928;2023-05-10T01:18:01;8.88;;;3.08;;
20729;SDS011;10526;50.850;12.928;2023-05-10T01:37:41;16.70;;;3.80;;
20729;SDS011;10526;50.850;12.928;2023-05-10T01:42:11;9.23;;;3.72;;
20729;SDS011;10526;50.850;12.928;2023-05-10T01:46:48;9.98;;;4.07;;
20729;SDS011;10526;50.850;12.928;2023-05-10T01:51:26;9.23;;;3.50;;
20729;SDS011;10526;50.850;12.928;2023-05-10T01:55:56;8.98;;;3.80;;
20729;SDS011;10526;50.850;12.928;2023-05-10T02:00:21;10.05;;;3.75;;
20729;SDS011;10526;50.850;12.928;2023-05-10T02:04:45;9.55;;;4.00;;
20729;SDS011;10526;50.850;12.928;2023-05-10T02:09:10;12.57;;;4.30;;
20729;SDS011;10526;50.850;12.928;2023-05-10T02:13:34;9.57;;;4.05;;
20729;SDS011;10526;50.850;12.928;2023-05-10T02:17:59;10.05;;;3.55;;
20729;SDS011;10526;50.850;12.928;2023-05-10T02:22:23;8.25;;;3.67;;
20729;SDS011;10526;50.850;12.928;2023-05-10T02:26:46;9.35;;;4.13;;
20729;SDS011;10526;50.850;12.928;2023-05-10T02:31:10;9.80;;;4.30;;
20729;SDS011;10526;50.850;12.928;2023-05-10T02:35:33;9.10;;;3.83;;
20729;SDS011;10526;50.850;12.928;2023-05-10T02:39:56;13.40;;;3.88;;
20729;SDS011;10526;50.850;12.928;2023-05-10T02:44:19;12.30;;;4.03;;
20729;SDS011;10526;50.850;12.928;2023-05-10T02:48:43;10.40;;;4.40;;
20729;SDS011;10526;50.850;12.928;2023-05-10T02:53:09;9.55;;;3.65;;
20729;SDS011;10526;50.850;12.928;2023-05-10T02:57:38;11.45;;;4.05;;
20729;SDS011;10526;50.850;12.928;2023-05-10T03:02:09;10.48;;;4.47;;
20729;SDS011;10526;50.850;12.928;2023-05-10T03:06:33;10.20;;;4.32;;
20729;SDS011;10526;50.850;12.928;2023-05-10T03:20:44;10.68;;;5.05;;
20729;SDS011;10526;50.850;12.928;2023-05-10T03:25:23;10.63;;;4.13;;
20729;SDS011;10526;50.850;12.928;2023-05-10T03:29:47;11.38;;;3.80;;
20729;SDS011;10526;50.850;12.928;2023-05-10T03:34:10;11.23;;;3.90;;
20729;SDS011;10526;50.850;12.928;2023-05-10T03:38:32;11.23;;;3.50;;
20729;SDS011;10526;50.850;12.928;2023-05-10T03:42:55;14.02;;;4.43;;
20729;SDS011;10526;50.850;12.928;2023-05-10T03:47:17;9.43;;;3.53;;
20729;SDS011;10526;50.850;12.928;2023-05-10T03:51:39;10.45;;;4.03;;
20729;SDS011;10526;50.850;12.928;2023-05-10T03:56:01;10.38;;;3.88;;
20729;SDS011;10526;50.850;12.928;2023-05-10T04:00:23;10.65;;;3.42;;
20729;SDS011;10526;50.850;12.928;2023-05-10T04:04:48;9.63;;;3.90;;
20729;SDS011;10526;50.850;12.928;2023-05-10T04:09:11;9.18;;;3.42;;
20729;SDS011;10526;50.850;12.928;2023-05-10T04:13:33;10.02;;;3.85;;
20729;SDS011;10526;50.850;12.928;2023-05-10T04:17:57;12.45;;;3.88;;
20729;SDS011;10526;50.850;12.928;2023-05-10T04:22:19;10.88;;;3.88;;
20729;SDS011;10526;50.850;12.928;2023-05-10T04:26:42;10.50;;;3.65;;
20729;SDS011;10526;50.850;12.928;2023-05-10T04:31:04;11.43;;;3.22;;
20729;SDS011;10526;50.850;12.928;2023-05-10T04:35:29;14.57;;;3.88;;
20729;SDS011;10526;50.850;12.928;2023-05-10T04:39:51;12.15;;;3.50;;
20729;SDS011;10526;50.850;12.928;2023-05-10T04:44:13;11.40;;;3.13;;
20729;SDS011;10526;50.850;12.928;2023-05-10T04:48:35;7.00;;;2.90;;
20729;SDS011;10526;50.850;12.928;2023-05-10T04:52:57;6.82;;;2.40;;
20729;SDS011;10526;50.850;12.928;2023-05-10T04:57:20;9.18;;;2.80;;
20729;SDS011;10526;50.850;12.928;2023-05-10T05:01:42;9.15;;;3.10;;
20729;SDS011;10526;50.850;12.928;2023-05-10T05:06:04;7.72;;;2.80;;
20729;SDS011;10526;50.850;12.928;2023-05-10T05:10:27;7.32;;;2.85;;
20729;SDS011;10526;50.850;12.928;2023-05-10T05:14:49;6.15;;;3.00;;
20729;SDS011;10526;50.850;12.928;2023-05-10T05:19:11;5.13;;;2.50;;
20729;SDS011;10526;50.850;12.928;2023-05-10T05:23:34;5.85;;;3.22;;
20729;SDS011;10526;50.850;12.928;2023-05-10T05:27:56;7.93;;;2.80;;
20729;SDS011;10526;50.850;12.928;2023-05-10T05:32:18;5.03;;;2.50;;
20729;SDS011;10526;50.850;12.928;2023-05-10T05:36:40;6.57;;;2.83;;
20729;SDS011;10526;50.850;12.928;2023-05-10T05:41:02;6.72;;;2.80;;
20729;SDS011;10526;50.850;12.928;2023-05-10T05:45:24;8.30;;;2.45;;
20729;SDS011;10526;50.850;12.928;2023-05-10T05:49:46;7.85;;;2.47;;
20729;SDS011;10526;50.850;12.928;2023-05-10T05:54:08;6.53;;;2.78;;
20729;SDS011;10526;50.850;12.928;2023-05-10T05:58:31;5.53;;;2.60;;
20729;SDS011;10526;50.850;12.928;2023-05-10T06:02:53;5.93;;;2.90;;
20729;SDS011;10526;50.850;12.928;2023-05-10T06:07:15;4.88;;;2.63;;
20729;SDS011;10526;50.850;12.928;2023-05-10T06:11:37;9.90;;;3.70;;
20729;SDS011;10526;50.850;12.928;2023-05-10T06:15:59;5.38;;;3.13;;
20729;SDS011;10526;50.850;12.928;2023-05-10T06:20:23;9.35;;;3.50;;
20729;SDS011;10526;50.850;12.928;2023-05-10T06:24:45;7.82;;;2.70;;
20729;SDS011;10526;50.850;12.928;2023-05-10T06:29:07;5.45;;;2.60;;
20729;SDS011;10526;50.850;12.928;2023-05-10T06:33:29;9.45;;;3.15;;
20729;SDS011;10526;50.850;12.928;2023-05-10T06:37:52;7.88;;;3.28;;
20729;SDS011;10526;50.850;12.928;2023-05-10T06:42:14;9.27;;;3.35;;
20729;SDS011;10526;50.850;12.928;2023-05-10T06:46:39;9.75;;;3.13;;
20729;SDS011;10526;50.850;12.928;2023-05-10T06:51:02;8.88;;;3.28;;
20729;SDS011;10526;50.850;12.928;2023-05-10T06:55:25;7.65;;;3.00;;
20729;SDS011;10526;50.850;12.928;2023-05-10T06:59:47;10.57;;;3.22;;
20729;SDS011;10526;50.850;12.928;2023-05-10T07:04:10;8.10;;;3.03;;
20729;SDS011;10526;50.850;12.928;2023-05-10T07:08:32;7.00;;;2.67;;
20729;SDS011;10526;50.850;12.928;2023-05-10T07:12:57;7.75;;;2.88;;
20729;SDS011;10526;50.850;12.928;2023-05-10T07:17:20;5.88;;;2.72;;
20729;SDS011;10526;50.850;12.928;2023-05-10T07:21:42;6.78;;;2.97;;
20729;SDS011;10526;50.850;12.928;2023-05-10T07:26:05;8.35;;;3.58;;
20729;SDS011;10526;50.850;12.928;2023-05-10T07:30:28;5.30;;;2.88;;
20729;SDS011;10526;50.850;12.928;2023-05-10T07:34:50;9.10;;;3.40;;
20729;SDS011;10526;50.850;12.928;2023-05-10T07:39:12;8.65;;;2.75;;
20729;SDS011;10526;50.850;12.928;2023-05-10T07:43:44;8.75;;;3.22;;
20729;SDS011;10526;50.850;12.928;2023-05-10T07:48:06;9.93;;;3.08;;
20729;SDS011;10526;50.850;12.928;2023-05-10T07:52:29;6.72;;;3.03;;
20729;SDS011;10526;50.850;12.928;2023-05-10T07:56:51;7.75;;;3.63;;
20729;SDS011;10526;50.850;12.928;2023-05-10T08:01:12;8.13;;;3.13;;
20729;SDS011;10526;50.850;12.928;2023-05-10T08:05:35;7.50;;;2.88;;
20729;SDS011;10526;50.850;12.928;2023-05-10T08:09:57;4.80;;;2.50;;
20729;SDS011;10526;50.850;12.928;2023-05-10T08:14:19;8.05;;;3.00;;
20729;SDS011;10526;50.850;12.928;2023-05-10T08:18:41;9.95;;;3.30;;
20729;SDS011;10526;50.850;12.928;2023-05-10T08:23:04;10.30;;;3.40;;
20729;SDS011;10526;50.850;12.928;2023-05-10T08:27:27;8.50;;;3.40;;
20729;SDS011;10526;50.850;12.928;2023-05-10T08:31:49;9.88;;;3.30;;
20729;SDS011;10526;50.850;12.928;2023-05-10T08:36:12;9.13;;;3.75;;
20729;SDS011;10526;50.850;12.928;2023-05-10T08:40:36;10.52;;;3.20;;
20729;SDS011;10526;50.850;12.928;2023-05-10T08:44:59;10.48;;;3.47;;
20729;SDS011;10526;50.850;12.928;2023-05-10T08:49:22;10.02;;;3.53;;
20729;SDS011;10526;50.850;12.928;2023-05-10T08:53:47;9.32;;;3.75;;
20729;SDS011;10526;50.850;12.928;2023-05-10T08:58:09;9.77;;;3.53;;
20729;SDS011;10526;50.850;12.928;2023-05-10T09:02:31;9.13;;;3.60;;
20729;SDS011;10526;50.850;12.928;2023-05-10T09:06:55;9.40;;;3.72;;
20729;SDS011;10526;50.850;12.928;2023-05-10T09:11:18;7.70;;;3.25;;
20729;SDS011;10526;50.850;12.928;2023-05-10T09:15:43;9.77;;;3.83;;
20729;SDS011;10526;50.850;12.928;2023-05-10T09:20:06;9.10;;;3.92;;
20729;SDS011;10526;50.850;12.928;2023-05-10T09:24:29;10.85;;;4.00;;
20729;SDS011;10526;50.850;12.928;2023-05-10T09:28:56;11.98;;;4.25;;
20729;SDS011;10526;50.850;12.928;2023-05-10T09:33:19;8.02;;;3.88;;
20729;SDS011;10526;50.850;12.928;2023-05-10T09:37:43;10.85;;;3.75;;
20729;SDS011;10526;50.850;12.928;2023-05-10T09:42:09;10.07;;;4.10;;
20729;SDS011;10526;50.850;12.928;2023-05-10T09:46:34;10.60;;;4.47;;
20729;SDS011;10526;50.850;12.928;2023-05-10T09:50:58;8.65;;;4.10;;
20729;SDS011;10526;50.850;12.928;2023-05-10T09:55:21;9.75;;;3.92;;
20729;SDS011;10526;50.850;12.928;2023-05-10T09:59:44;10.45;;;4.40;;
20729;SDS011;10526;50.850;12.928;2023-05-10T10:04:08;10.75;;;4.13;;
20729;SDS011;10526;50.850;12.928;2023-05-10T10:08:32;9.38;;;4.18;;
20729;SDS011;10526;50.850;12.928;2023-05-10T10:12:55;8.70;;;4.35;;
20729;SDS011;10526;50.850;12.928;2023-05-10T10:17:17;9.95;;;4.45;;
20729;SDS011;10526;50.850;12.928;2023-05-10T10:21:41;12.80;;;5.18;;
20729;SDS011;10526;50.850;12.928;2023-05-10T10:26:04;12.65;;;4.75;;
20729;SDS011;10526;50.850;12.928;2023-05-10T10:35:09;19.98;;;5.57;;
20729;SDS011;10526;50.850;12.928;2023-05-10T10:39:31;13.23;;;5.68;;
20729;SDS011;10526;50.850;12.928;2023-05-10T10:48:50;10.43;;;4.38;;
20729;SDS011;10526;50.850;12.928;2023-05-10T10:53:31;12.38;;;4.90;;
20729;SDS011;10526;50.850;12.928;2023-05-10T10:57:54;12.27;;;5.03;;
20729;SDS011;10526;50.850;12.928;2023-05-10T11:02:32;13.18;;;4.85;;
20729;SDS011;10526;50.850;12.928;2023-05-10T11:07:16;19.45;;;4.78;;
20729;SDS011;10526;50.850;12.928;2023-05-10T11:11:53;9.35;;;4.18;;
20729;SDS011;10526;50.850;12.928;2023-05-10T11:16:23;14.50;;;5.00;;
20729;SDS011;10526;50.850;12.928;2023-05-10T11:20:50;11.73;;;4.70;;
20729;SDS011;10526;50.850;12.928;2023-05-10T11:25:16;13.63;;;4.38;;
20729;SDS011;10526;50.850;12.928;2023-05-10T11:29:39;11.13;;;4.65;;
20729;SDS011;10526;50.850;12.928;2023-05-10T11:34:01;12.18;;;4.60;;
20729;SDS011;10526;50.850;12.928;2023-05-10T11:38:23;10.57;;;4.65;;
20729;SDS011;10526;50.850;12.928;2023-05-10T11:42:45;11.30;;;4.50;;
20729;SDS011;10526;50.850;12.928;2023-05-10T11:47:07;12.68;;;4.88;;
20729;SDS011;10526;50.850;12.928;2023-05-10T11:51:32;12.73;;;5.13;;
20729;SDS011;10526;50.850;12.928;2023-05-10T11:56:07;11.20;;;5.43;;
20729;SDS011;10526;50.850;12.928;2023-05-10T12:00:31;12.82;;;6.00;;
20729;SDS011;10526;50.850;12.928;2023-05-10T12:04:54;12.20;;;5.88;;
20729;SDS011;10526;50.850;12.928;2023-05-10T12:09:17;15.15;;;7.28;;
20729;SDS011;10526;50.850;12.928;2023-05-10T12:13:55;14.50;;;7.38;;
20729;SDS011;10526;50.850;12.928;2023-05-10T12:18:22;15.68;;;7.82;;
20729;SDS011;10526;50.850;12.928;2023-05-10T12:22:46;18.58;;;7.90;;
20729;SDS011;10526;50.850;12.928;2023-05-10T12:27:14;13.82;;;7.38;;
20729;SDS011;10526;50.850;12.928;2023-05-10T12:31:54;15.82;;;7.50;;
20729;SDS011;10526;50.850;12.928;2023-05-10T12:36:22;16.90;;;8.02;;
20729;SDS011;10526;50.850;12.928;2023-05-10T12:40:45;18.70;;;8.35;;
20729;SDS011;10526;50.850;12.928;2023-05-10T12:45:07;16.38;;;8.52;;
20729;SDS011;10526;50.850;12.928;2023-05-10T12:49:30;14.20;;;7.55;;
20729;SDS011;10526;50.850;12.928;2023-05-10T12:53:53;13.30;;;6.72;;
20729;SDS011;10526;50.850;12.928;2023-05-10T12:58:15;16.33;;;6.63;;
20729;SDS011;10526;50.850;12.928;2023-05-10T13:02:54;12.68;;;6.43;;
20729;SDS011;10526;50.850;12.928;2023-05-10T13:07:16;12.93;;;6.82;;
20729;SDS011;10526;50.850;12.928;2023-05-10T13:11:39;12.02;;;5.95;;
20729;SDS011;10526;50.850;12.928;2023-05-10T13:16:01;12.43;;;6.00;;
20729;SDS011;10526;50.850;12.928;2023-05-10T13:20:24;14.82;;;6.07;;
20729;SDS011;10526;50.850;12.928;2023-05-10T13:24:47;10.93;;;4.72;;
20729;SDS011;10526;50.850;12.928;2023-05-10T13:29:09;11.00;;;5.68;;
20729;SDS011;10526;50.850;12.928;2023-05-10T13:33:31;10.63;;;4.97;;
20729;SDS011;10526;50.850;12.928;2023-05-10T13:37:53;10.07;;;4.78;;
20729;SDS011;10526;50.850;12.928;2023-05-10T13:42:17;10.70;;;4.88;;
20729;SDS011;10526;50.850;12.928;2023-05-10T13:46:40;13.70;;;5.22;;
20729;SDS011;10526;50.850;12.928;2023-05-10T13:51:03;10.13;;;5.03;;
20729;SDS011;10526;50.850;12.928;2023-05-10T13:55:25;8.02;;;4.00;;
20729;SDS011;10526;50.850;12.928;2023-05-10T13:59:47;9.27;;;4.70;;
20729;SDS011;10526;50.850;12.928;2023-05-10T14:04:09;11.02;;;4.68;;
20729;SDS011;10526;50.850;12.928;2023-05-10T14:08:32;9.45;;;4.50;;
20729;SDS011;10526;50.850;12.928;2023-05-10T14:12:56;9.90;;;4.32;;
20729;SDS011;10526;50.850;12.928;2023-05-10T14:17:18;10.10;;;4.57;;
20729;SDS011;10526;50.850;12.928;2023-05-10T14:21:40;8.75;;;4.35;;
20729;SDS011;10526;50.850;12.928;2023-05-10T14:26:02;9.15;;;4.53;;
20729;SDS011;10526;50.850;12.928;2023-05-10T14:30:25;14.25;;;4.82;;
20729;SDS011;10526;50.850;12.928;2023-05-10T14:34:48;12.90;;;5.10;;
20729;SDS011;10526;50.850;12.928;2023-05-10T14:39:10;11.07;;;4.95;;
20729;SDS011;10526;50.850;12.928;2023-05-10T14:43:34;12.55;;;4.75;;
20729;SDS011;10526;50.850;12.928;2023-05-10T14:47:56;12.30;;;5.00;;
20729;SDS011;10526;50.850;12.928;2023-05-10T14:52:19;11.85;;;4.90;;
20729;SDS011;10526;50.850;12.928;2023-05-10T14:56:41;9.57;;;4.78;;
20729;SDS011;10526;50.850;12.928;2023-05-10T15:01:03;9.73;;;4.80;;
20729;SDS011;10526;50.850;12.928;2023-05-10T15:05:26;10.60;;;5.05;;
20729;SDS011;10526;50.850;12.928;2023-05-10T15:09:50;10.68;;;5.13;;
20729;SDS011;10526;50.850;12.928;2023-05-10T15:14:15;10.43;;;4.85;;
20729;SDS011;10526;50.850;12.928;2023-05-10T15:18:37;11.60;;;5.35;;
20729;SDS011;10526;50.850;12.928;2023-05-10T15:22:59;12.98;;;4.93;;
20729;SDS011;10526;50.850;12.928;2023-05-10T15:27:22;12.90;;;6.03;;
20729;SDS011;10526;50.850;12.928;2023-05-10T15:31:43;11.35;;;5.75;;
20729;SDS011;10526;50.850;12.928;2023-05-10T15:36:06;31.15;;;19.08;;
20729;SDS011;10526;50.850;12.928;2023-05-10T15:40:28;9.13;;;4.30;;
20729;SDS011;10526;50.850;12.928;2023-05-10T15:44:50;9.43;;;4.60;;
20729;SDS011;10526;50.850;12.928;2023-05-10T15:49:12;7.70;;;3.72;;
20729;SDS011;10526;50.850;12.928;2023-05-10T15:53:34;9.02;;;4.03;;
20729;SDS011;10526;50.850;12.928;2023-05-10T15:57:56;8.80;;;4.10;;
20729;SDS011;10526;50.850;12.928;2023-05-10T16:02:18;12.25;;;5.57;;
20729;SDS011;10526;50.850;12.928;2023-05-10T16:06:42;9.88;;;4.65;;
20729;SDS011;10526;50.850;12.928;2023-05-10T16:11:04;7.93;;;4.00;;
20729;SDS011;10526;50.850;12.928;2023-05-10T16:15:27;9.13;;;4.20;;
20729;SDS011;10526;50.850;12.928;2023-05-10T16:19:49;8.30;;;3.95;;
20729;SDS011;10526;50.850;12.928;2023-05-10T16:24:11;9.07;;;4.22;;
20729;SDS011;10526;50.850;12.928;2023-05-10T16:28:33;8.25;;;3.92;;
20729;SDS011;10526;50.850;12.928;2023-05-10T16:32:56;6.25;;;3.60;;
20729;SDS011;10526;50.850;12.928;2023-05-10T16:37:18;11.77;;;4.28;;
20729;SDS011;10526;50.850;12.928;2023-05-10T16:41:41;8.50;;;3.70;;
20729;SDS011;10526;50.850;12.928;2023-05-10T16:46:08;11.38;;;4.28;;
20729;SDS011;10526;50.850;12.928;2023-05-10T16:50:32;7.78;;;3.67;;
20729;SDS011;10526;50.850;12.928;2023-05-10T16:54:54;8.93;;;3.95;;
20729;SDS011;10526;50.850;12.928;2023-05-10T16:59:17;7.72;;;3.83;;
20729;SDS011;10526;50.850;12.928;2023-05-10T17:03:39;13.27;;;4.28;;
20729;SDS011;10526;50.850;12.928;2023-05-10T17:08:01;11.00;;;4.00;;
20729;SDS011;10526;50.850;12.928;2023-05-10T17:12:23;9.80;;;4.13;;
20729;SDS011;10526;50.850;12.928;2023-05-10T17:16:46;13.35;;;4.68;;
20729;SDS011;10526;50.850;12.928;2023-05-10T17:21:08;7.85;;;4.00;;
20729;SDS011;10526;50.850;12.928;2023-05-10T17:25:30;12.48;;;5.05;;
20729;SDS011;10526;50.850;12.928;2023-05-10T17:29:55;12.73;;;5.63;;
20729;SDS011;10526;50.850;12.928;2023-05-10T17:34:18;13.57;;;6.18;;
20729;SDS011;10526;50.850;12.928;2023-05-10T17:38:40;11.27;;;5.07;;
20729;SDS011;10526;50.850;12.928;2023-05-10T17:43:03;13.00;;;6.05;;
20729;SDS011;10526;50.850;12.928;2023-05-10T17:47:25;10.23;;;4.90;;
20729;SDS011;10526;50.850;12.928;2023-05-10T17:51:47;8.18;;;3.83;;
20729;SDS011;10526;50.850;12.928;2023-05-10T17:56:10;8.05;;;4.25;;
20729;SDS011;10526;50.850;12.928;2023-05-10T18:00:32;9.85;;;4.55;;
20729;SDS011;10526;50.850;12.928;2023-05-10T18:04:54;10.32;;;5.60;;
20729;SDS011;10526;50.850;12.928;2023-05-10T18:09:20;12.63;;;5.53;;
20729;SDS011;10526;50.850;12.928;2023-05-10T18:13:42;14.93;;;5.55;;
20729;SDS011;10526;50.850;12.928;2023-05-10T18:18:04;11.90;;;6.10;;
20729;SDS011;10526;50.850;12.928;2023-05-10T18:22:27;14.15;;;6.47;;
20729;SDS011;10526;50.850;12.928;2023-05-10T18:26:49;13.55;;;6.55;;
20729;SDS011;10526;50.850;12.928;2023-05-10T18:31:11;14.52;;;6.97;;
20729;SDS011;10526;50.850;12.928;2023-05-10T18:35:33;15.63;;;6.78;;
20729;SDS011;10526;50.850;12.928;2023-05-10T18:39:55;13.63;;;7.57;;
20729;SDS011;10526;50.850;12.928;2023-05-10T18:44:17;17.80;;;7.88;;
20729;SDS011;10526;50.850;12.928;2023-05-10T18:48:39;13.48;;;7.90;;
20729;SDS011;10526;50.850;12.928;2023-05-10T18:53:01;14.73;;;8.50;;
20729;SDS011;10526;50.850;12.928;2023-05-10T18:57:24;15.88;;;7.55;;
20729;SDS011;10526;50.850;12.928;2023-05-10T19:01:46;14.50;;;8.05;;
20729;SDS011;10526;50.850;12.928;2023-05-10T19:06:11;14.55;;;8.20;;
20729;SDS011;10526;50.850;12.928;2023-05-10T19:10:33;18.85;;;7.90;;
20729;SDS011;10526;50.850;12.928;2023-05-10T19:14:55;14.52;;;7.82;;
20729;SDS011;10526;50.850;12.928;2023-05-10T19:19:16;16.42;;;8.73;;
20729;SDS011;10526;50.850;12.928;2023-05-10T19:23:39;15.15;;;8.07;;
20729;SDS011;10526;50.850;12.928;2023-05-10T19:28:02;21.33;;;11.95;;
20729;SDS011;10526;50.850;12.928;2023-05-10T19:32:25;17.55;;;9.77;;
20729;SDS011;10526;50.850;12.928;2023-05-10T19:36:48;16.25;;;9.63;;
20729;SDS011;10526;50.850;12.928;2023-05-10T19:41:10;23.27;;;11.25;;
20729;SDS011;10526;50.850;12.928;2023-05-10T19:45:33;17.95;;;10.27;;
20729;SDS011;10526;50.850;12.928;2023-05-10T19:49:56;18.98;;;11.15;;
20729;SDS011;10526;50.850;12.928;2023-05-10T19:54:19;31.58;;;19.58;;
20729;SDS011;10526;50.850;12.928;2023-05-10T19:58:41;34.17;;;18.90;;
20729;SDS011;10526;50.850;12.928;2023-05-10T20:03:04;25.45;;;14.77;;
20729;SDS011;10526;50.850;12.928;2023-05-10T20:07:29;23.48;;;12.02;;
20729;SDS011;10526;50.850;12.928;2023-05-10T20:12:00;29.67;;;14.68;;
20729;SDS011;10526;50.850;12.928;2023-05-10T20:16:22;23.10;;;11.80;;
20729;SDS011;10526;50.850;12.928;2023-05-10T20:21:08;19.73;;;11.68;;
20729;SDS011;10526;50.850;12.928;2023-05-10T20:25:30;18.80;;;11.65;;
20729;SDS011;10526;50.850;12.928;2023-05-10T20:29:52;22.38;;;13.25;;
20729;SDS011;10526;50.850;12.928;2023-05-10T20:34:14;23.67;;;13.50;;
20729;SDS011;10526;50.850;12.928;2023-05-10T20:38:37;20.55;;;13.45;;
20729;SDS011;10526;50.850;12.928;2023-05-10T20:42:59;20.25;;;12.05;;
20729;SDS011;10526;50.850;12.928;2023-05-10T20:47:21;19.30;;;11.55;;
20729;SDS011;10526;50.850;12.928;2023-05-10T20:51:44;18.00;;;10.85;;
20729;SDS011;10526;50.850;12.928;2023-05-10T20:56:06;21.27;;;11.13;;
20729;SDS011;10526;50.850;12.928;2023-05-10T21:00:28;17.17;;;10.45;;
20729;SDS011;10526;50.850;12.928;2023-05-10T21:04:50;17.40;;;11.15;;
20729;SDS011;10526;50.850;12.928;2023-05-10T21:09:14;22.75;;;12.18;;
20729;SDS011;10526;50.850;12.928;2023-05-10T21:13:37;18.52;;;11.15;;
20729;SDS011;10526;50.850;12.928;2023-05-10T21:18:00;19.70;;;11.93;;
20729;SDS011;10526;50.850;12.928;2023-05-10T21:22:22;21.13;;;12.40;;
20729;SDS011;10526;50.850;12.928;2023-05-10T21:26:44;19.80;;;11.82;;
20729;SDS011;10526;50.850;12.928;2023-05-10T21:31:07;21.75;;;12.30;;
20729;SDS011;10526;50.850;12.928;2023-05-10T21:35:29;21.75;;;12.55;;
20729;SDS011;10526;50.850;12.928;2023-05-10T21:39:51;19.10;;;12.40;;
20729;SDS011;10526;50.850;12.928;2023-05-10T21:44:14;20.30;;;12.57;;
20729;SDS011;10526;50.850;12.928;2023-05-10T21:48:36;22.50;;;14.13;;
20729;SDS011;10526;50.850;12.928;2023-05-10T21:52:58;19.92;;;12.00;;
20729;SDS011;10526;50.850;12.928;2023-05-10T21:57:21;21.60;;;12.88;;
20729;SDS011;10526;50.850;12.928;2023-05-10T22:01:43;22.52;;;14.45;;
20729;SDS011;10526;50.850;12.928;2023-05-10T22:06:05;23.30;;;14.35;;
20729;SDS011;10526;50.850;12.928;2023-05-10T22:10:29;24.08;;;15.60;;
20729;SDS011;10526;50.850;12.928;2023-05-10T22:14:51;21.88;;;14.23;;
20729;SDS011;10526;50.850;12.928;2023-05-10T22:19:29;20.75;;;14.05;;
20729;SDS011;10526;50.850;12.928;2023-05-10T22:23:51;21.67;;;13.98;;
20729;SDS011;10526;50.850;12.928;2023-05-10T22:28:16;24.52;;;15.45;;
20729;SDS011;10526;50.850;12.928;2023-05-10T22:32:45;24.75;;;15.23;;
20729;SDS011;10526;50.850;12.928;2023-05-10T22:37:07;24.00;;;15.73;;
20729;SDS011;10526;50.850;12.928;2023-05-10T22:41:31;23.88;;;14.23;;
20729;SDS011;10526;50.850;12.928;2023-05-10T22:45:54;22.27;;;13.55;;
20729;SDS011;10526;50.850;12.928;2023-05-10T22:50:16;22.50;;;13.93;;
20729;SDS011;10526;50.850;12.928;2023-05-10T22:54:39;22.83;;;13.88;;
20729;SDS011;10526;50.850;12.928;2023-05-10T22:59:01;23.60;;;15.52;;
20729;SDS011;10526;50.850;12.928;2023-05-10T23:03:23;23.33;;;15.25;;
20729;SDS011;10526;50.850;12.928;2023-05-10T23:07:46;22.85;;;15.55;;
20729;SDS011;10526;50.850;12.928;2023-05-10T23:12:13;23.75;;;14.77;;
20729;SDS011;10526;50.850;12.928;2023-05-10T23:16:35;22.60;;;14.73;;
20729;SDS011;10526;50.850;12.928;2023-05-10T23:20:57;22.35;;;14.73;;
20729;SDS011;10526;50.850;12.928;2023-05-10T23:25:19;22.02;;;14.13;;
20729;SDS011;10526;50.850;12.928;2023-05-10T23:29:42;27.73;;;14.93;;
20729;SDS011;10526;50.850;12.928;2023-05-10T23:34:04;22.80;;;14.93;;
20729;SDS011;10526;50.850;12.928;2023-05-10T23:38:26;19.67;;;13.60;;
20729;SDS011;10526;50.850;12.928;2023-05-10T23:42:48;21.60;;;13.95;;
20729;SDS011;10526;50.850;12.928;2023-05-10T23:47:10;19.15;;;13.27;;
20729;SDS011;10526;50.850;12.928;2023-05-10T23:51:32;23.65;;;15.25;;
20729;SDS011;10526;50.850;12.928;2023-05-10T23:55:54;24.92;;;15.90;;
